Aérodrome :
LOGIN :

S'inscrire | Disclaimer

   EN    FR    IT 

 










Légende :    VFR   VFR Marginal   IFR   IFR Intensif   IFR Très Intensif
Visi : 
Plafond : 
>= 8 km
>= 3000ft
5 à 8 km
1000 à 3000 ft
1500m à 5 km
500 à 1000 ft
800 à 1500m
200 à 500 ft
< 800m
< 200 ft
Symboles :   Orages  Brouillard  Fortes neiges  Fortes précipitations  Vent > 20 kt
SIGMETs :   Divers  Orages  Givrage  Turbulence  Onde Orograph.  Cendres Volcan.






- Altitude de l'aérodrome : 138 ft
- Code IATA : BIO


LEBB - Bilbao

DERNIER METAR :
  • 031700Z 24007KT 180V290 CAVOK 12/02 Q1000

METARs EXPIRÉS :
  • 031630Z 20008KT 140V250 CAVOK 12/02 Q1000
  • 031600Z 19011KT 110V250 CAVOK 12/02 Q1001
  • 031530Z 21010KT 150V260 CAVOK 12/02 Q1002
  • 031500Z 21011G23KT 150V260 CAVOK 13/02 Q1003
  • 031430Z 20008KT 110V270 9999 FEW050 13/03 Q1003

TAF TAF LEBB
Valide du 03 à 12h jusqu'au 04 à 12h UTC


031100Z 0312/0412 18009KT 9999 SCT050 TX14/0314Z TN03/0406Z
TEMPO 0318/0408 24015G25KT
BECMG 0321/0324 28012KT
TEMPO 0321/0406 28020G33KT
TEMPO 0318/0412 3000 RA SHRA BKN010 SCT025TCU
PROB40
TEMPO 0400/0412 3000 TS SHRAGR BKN010 SCT025CB



MET'MAP, la Météo Aéronautique d'un coup d'oeil ! - Copyright ORBIFLY Décembre 2007 - Disclaimer

ORBIFLY MET'MAP TEAM :

Programmation & Développement : Alexandra Zaïnal
Sur une idée originale de : Baudouin d'Aumeries
Assistance à la programmation : Marc-Olivier Méhu
Soutien technique & logistique : Manuel Goepfert

Contact : metmap@orbifly.com




SOURCES & CREDITS :

   NOAA